Tiempo atmosférico en la estación meteorológica de Valladolid, Valladolid (735 m.)



Fecha
DESCASC
Temp. máxima en grados centígrados (hora)
DESCASC
Temp. mínima en grados centígrados (hora)
DESCASC
Temp. media en grados centígrados
DESCASC
Racha de viento máxima en m/sg (hora)
DESCASC
Velocidad máxima media en intervalos de 10 minutos(hora)
DESCASC
Precipitaciones diarias en mm
DESCASC
Precipitaciones de 00:00 a 06:00 en mm
DESCASC
Precipitaciones de 06:00 a 12:00 en mm
DESCASC
Precipitaciones de 12:00 a 18:00 en mm
DESCASC
Precipitaciones de 18:00 a 24:00 en mm
DESCASC
06-07-2020 31.4 (17:40) 16.9 (07:00) 24.1 8.61 (18:10) 2.78 (23:40) 0 0 0 0 0
05-07-2020 34.5 (19:10) 15.7 (07:00) 25.1 7.22 (00:40) 2.78 (23:30) 0 0 0 0 0
04-07-2020 32.3 (18:00) 11.8 (06:40) 22 5.83 (16:30) 2.78 (00:30) 0 0 0 0 0
03-07-2020 28.1 (18:00) 11.7 (07:00) 19.9 8.33 (01:30) 2.78 (17:20) 0 0 0 0 0
02-07-2020 29.4 (18:10) 14.1 (00:00) 21.8 9.72 (16:30) 4.44 (17:10) 0 0 0 0 0
01-07-2020 -- (--) -- (--) -- -- (--) -- (--) -- 0 -- 0 0
30-06-2020 35.8 (17:00) 16.1 (00:00) 25.9 9.44 (15:50) 4.17 (18:50) 0 0 0 0 0
29-06-2020 -- (--) -- (--) -- -- (--) -- (--) -- 0 -- -- 0
28-06-2020 32 (18:10) 15.2 (00:00) 23.6 7.78 (16:20) 3.61 (18:00) 0 0 0 0 0
27-06-2020 29.2 (17:40) 14.8 (00:00) 22 8.89 (16:10) 3.89 (16:50) 0 0 0 0 0
26-06-2020 28.7 (17:20) 15.2 (00:00) 22 9.72 (18:00) 5 (19:20) 0 0 0 0 0
25-06-2020 31.7 (16:10) 15.7 (00:00) 23.7 6.11 (19:00) 2.78 (16:50) 1 0 0 0 1
24-06-2020 30.6 (16:30) 17.7 (00:00) 24.2 10 (22:30) 4.17 (22:30) 2.6 0 0.6 0 2
23-06-2020 37.3 (17:40) 15.7 (00:00) 26.5 7.5 (15:10) 3.61 (16:30) 0.2 0 0 0 0.2
22-06-2020 33.2 (17:00) 14.3 (00:00) 23.8 6.94 (15:30) 2.78 (15:30) 0 0 0 0 0
21-06-2020 31.5 (18:10) 14.3 (00:00) 22.9 7.22 (23:30) 2.78 (23:20) 0 0 0 0 0
20-06-2020 31.1 (18:50) 11.7 (00:00) 21.4 8.06 (16:10) 3.33 (16:10) 0 0 0 0 0
19-06-2020 28.7 (18:30) 10.2 (00:00) 19.5 8.89 (18:10) 3.89 (18:10) 0 0 0 0 0
18-06-2020 25.8 (17:00) 10.8 (07:00) 18.3 7.22 (17:00) 3.06 (19:20) 0 0 0 0 0
17-06-2020 23.6 (17:40) 10.1 (00:00) 16.9 6.39 (18:50) 2.78 (17:00) 0 0 0 0 0
16-06-2020 23.4 (18:40) 12.3 (00:00) 17.8 12.22 (17:30) 5.83 (17:30) 1 0 0 1 0
15-06-2020 23.4 (16:50) 10.2 (00:00) 16.8 8.06 (21:40) 3.89 (20:40) 0 0 0 0 0
14-06-2020 22.7 (16:10) 10.8 (00:00) 16.8 8.89 (15:00) 4.17 (13:10) 0 0 0 0 0
13-06-2020 20.6 (16:20) 8.8 (00:00) 14.7 10 (10:50) 5 (10:50) 0 0 0 0 0
12-06-2020 17.4 (16:30) 9.1 (00:00) 13.3 13.33 (15:10) 6.39 (01:40) 3 0 0 1.8 1.2
11-06-2020 21 (14:20) 11 (00:00) 16 14.17 (17:30) 7.78 (17:30) 0 0 0 0 0
10-06-2020 24.9 (18:50) 7.3 (00:00) 16.1 7.5 (14:50) 3.06 (14:50) 0 0 0 0 0
09-06-2020 -- (--) -- (--) -- -- (--) -- (--) -- 0 0 -- 0
08-06-2020 20.4 (16:30) 7 (07:00) 13.7 9.17 (21:00) 3.61 (21:00) 0 0 0 0 0
07-06-2020 19.1 (16:10) 11.3 (00:00) 15.2 10 (20:40) 3.89 (21:40) 0.2 0.2 0 0 0

Gráficas

Temp. máximas Temp. mínimas Temp. medias Precipitaciones Rachas de viento máximas Velocidades máximas media en intervalos de 10 minutos

Datos horarios

Fecha y hora oficial Temperatura (ºC) Velocidad del viento (km/h) Dirección del viento Racha (km/h) Dirección de racha Precipitación (mm) Presión (hPa) Tendencia (hPa) Humedad (%)
2020-07-06 23:00:00 20.8 8 Norte 22 Este 0 935.4 1.2 56
2020-07-06 22:00:00 22.9 6 Norte 23 Norte 0 934.8 0.6 47
2020-07-06 21:00:00 25.4 8 Norte 30 Nordeste 0 934.6 0.1 38
2020-07-06 20:00:00 28 9 Nordeste 28 Nordeste 0 934.2 -0.5 34
2020-07-06 19:00:00 30.3 8 Norte 31 Nordeste 0 934.2 -0.8 32
2020-07-06 18:00:00 31.1 8 Nordeste 21 Noroeste 0 934.5 -1 32
2020-07-06 17:00:00 31 6 Nordeste 24 Este 0 934.7 -1.2 33
2020-07-06 16:00:00 30.9 7 Nordeste 23 Este 0 935 -1 34
2020-07-06 15:00:00 30.3 8 Nordeste 22 Este 0 935.5 -0.6 37
2020-07-06 14:00:00 28.1 8 Norte 22 Sudeste 0 935.9 -0.4 41
2020-07-06 13:00:00 27.6 7 Norte 19 Nordeste 0 936 -0.6 44
2020-07-06 12:00:00 25.4 7 Norte 23 Nordeste 0 936.1 -- 48
2020-07-06 11:00:00 23.4 6 Norte 20 Norte 0 936.3 -- 52
2020-07-06 10:00:00 20.6 8 Norte 23 Nordeste 0 936.6 -- 60
2020-07-06 09:00:00 19 7 Norte 23 Norte 0 936.3 -- 66
2020-07-06 08:00:00 17.7 6 Norte 19 Norte 0 936 -- 72
2020-07-06 07:00:00 16.9 6 Norte 18 Norte 0 935.8 -- 75
2020-07-06 06:00:00 17.4 5 Norte 14 Nordeste 0 935.6 -- 73
2020-07-06 05:00:00 18.2 6 Norte 17 Norte 0 935.6 -- 68
2020-07-06 04:00:00 19.1 5 Norte 17 Norte 0 935.8 -- 63
2020-07-06 03:00:00 20.6 4 Norte 15 Norte 0 935.9 -- 58
2020-07-06 02:00:00 21.9 5 Norte 20 Nordeste 0 936 -- 56
2020-07-06 01:00:00 24.1 8 Nordeste 26 Norte 0 935.7 -- 49
2020-07-06 00:00:00 26 9 Nordeste 25 Nordeste 0 935.6 -- 44
2020-07-05 23:00:00 27.6 7 Nordeste 26 Nordeste 0 935.1 -- 42
2020-07-05 22:00:00 29.1 3 Norte 10 Noroeste 0 934.5 -- 29
2020-07-05 21:00:00 31.1 6 Noroeste 17 Norte 0 934.3 -- 25
2020-07-05 20:00:00 32.7 5 Norte 18 Noroeste 0 934.2 -- 23
2020-07-05 19:00:00 34.4 6 Nordeste 16 Este 0 934.3 -- 21
2020-07-05 18:00:00 34.3 5 Este 19 Norte 0 934.8 -- 22
2020-07-05 17:00:00 33.8 5 Norte 19 Este 0 935.3 -- 22
2020-07-05 16:00:00 33.2 5 Este 17 Este 0 935.8 -- 23
2020-07-05 15:00:00 31.9 8 Este 16 Este 0 936.2 -- 23
2020-07-05 14:00:00 31.4 5 Nordeste 19 Norte 0 936.8 -- 26
2020-07-05 13:00:00 30.1 5 Norte 15 Norte 0 937.4 -- 28
2020-07-05 12:00:00 27.1 5 Nordeste 12 Nordeste 0 937.8 -- 33
2020-07-05 11:00:00 24.2 5 Norte 12 Nordeste 0 938.1 -- 40
2020-07-05 10:00:00 21.5 4 Nordeste 14 Nordeste 0 938.2 -- 45
2020-07-05 09:00:00 19.1 6 Norte 16 Nordeste 0 938.1 -- 52
2020-07-05 08:00:00 16.9 4 Norte 11 Noroeste 0 937.7 -- 60
2020-07-05 07:00:00 15.7 4 Noroeste 10 Norte 0 937.8 -- 63
2020-07-05 06:00:00 16.5 4 Noroeste 14 Norte 0 937.7 -- 60
2020-07-05 05:00:00 17 4 Norte 14 Norte 0 937.7 -- 59
2020-07-05 04:00:00 18 4 Norte 15 Norte 0 938 -- 56
2020-07-05 03:00:00 19 3 Norte 17 Norte 0 938.4 -- 53
2020-07-05 02:00:00 21.2 6 Nordeste 23 Nordeste 0 938.8 -- 46
2020-07-05 01:00:00 22.4 6 Nordeste 26 Nordeste 0 938.7 -- 40
2020-07-05 00:00:00 23.6 7 Nordeste 19 Nordeste 0 938.3 -- 34
2020-07-04 23:00:00 25.1 4 Nordeste 19 Norte 0 937.8 -- 30
2020-07-04 22:00:00 26.7 3 Norte 10 Norte 0 937.1 -- 23
2020-07-04 21:00:00 28.7 3 Norte 11 Norte 0 936.8 -- 17
2020-07-04 20:00:00 30.5 5 Nordeste 17 Este 0 936.5 -- 16
2020-07-04 19:00:00 31.1 6 Este 19 Nordeste 0 936.6 -- 16
2020-07-04 18:00:00 32.2 6 Este 16 Este 0 936.8 -- 15
2020-07-04 17:00:00 31.6 5 Sudeste 21 Nordeste 0 937.1 -- 16
2020-07-04 16:00:00 30.3 5 Este 17 Este 0 937.6 -- 18
2020-07-04 15:00:00 29.5 9 Este 16 Este 0 938.1 -- 18
2020-07-04 14:00:00 27.9 6 Este 18 Este 0 938.8 -- 22
2020-07-04 13:00:00 26.3 6 Este 12 Nordeste 0 939 -- 26
2020-07-04 12:00:00 24.6 6 Nordeste 14 Nordeste 0 939.2 -- 23
2020-07-04 11:00:00 21.8 5 Nordeste 13 Norte 0 939.3 -- 37
2020-07-04 10:00:00 18.3 5 Nordeste 12 Noroeste 0 939.4 -- 50
2020-07-04 09:00:00 15.4 4 Norte 9 Norte 0 939.2 -- 62
2020-07-04 08:00:00 12.8 4 Norte 11 Noroeste 0 938.7 -- 77
2020-07-04 07:00:00 11.8 4 Norte 10 Norte 0 938.6 -- 80
2020-07-04 06:00:00 12.3 3 Noroeste 11 Norte 0 938.3 -- 77
2020-07-04 05:00:00 13 3 Noroeste 6 Norte 0 938.1 -- 73
2020-07-04 04:00:00 13.9 3 Norte 7 Noroeste 0 938.3 -- 70
2020-07-04 03:00:00 15.2 3 Noroeste 10 Nordeste 0 938.3 -- 62
2020-07-04 02:00:00 16.6 3 Norte 11 Nordeste 0 938.1 -- 56
2020-07-04 01:00:00 18.5 5 Nordeste 18 Este 0 938 -- 45
2020-07-04 00:00:00 19.6 4 Nordeste 11 Este 0 937.7 -- 36
2020-07-03 23:00:00 20.7 3 Norte 10 Nordeste 0 937.1 -- 31
2020-07-03 22:00:00 22.7 5 Norte 18 Nordeste 0 936.4 -- 28
2020-07-03 21:00:00 24.7 6 Nordeste 18 Nordeste 0 936 -- 25
2020-07-03 20:00:00 26.2 7 Este 20 Este 0 935.8 -- 23
2020-07-03 19:00:00 27 6 Norte 28 Nordeste 0 935.6 -- 24
2020-07-03 18:00:00 27.9 5 Norte 21 Nordeste 0 935.7 -- 24
2020-07-03 17:00:00 27.6 4 Nordeste 15 Norte 0 936 -- 22
2020-07-03 16:00:00 26.3 8 Este 15 Nordeste 0 936.2 -- 22
2020-07-03 15:00:00 25.7 6 Este 16 Nordeste 0 936.5 -- 27
2020-07-03 14:00:00 24.2 6 Norte 17 Norte 0 936.8 -- 35
2020-07-03 13:00:00 22.5 8 Nordeste 17 Noroeste 0 937.1 -- 42
2020-07-03 12:00:00 20.6 7 Norte 19 Oeste 0 937.1 -- 49
2020-07-03 11:00:00 18.9 6 Nordeste 18 Nordeste 0 937.1 -- 55
2020-07-03 10:00:00 16.9 7 Norte 19 Nordeste 0 937.1 -- 61
2020-07-03 09:00:00 14.3 6 Norte 18 Norte 0 937.1 -- 71
2020-07-03 08:00:00 12.5 4 Nordeste 20 Norte 0 936.7 -- 78
2020-07-03 07:00:00 11.7 6 Nordeste 20 Nordeste 0 936.4 -- 80
2020-07-03 06:00:00 12 6 Norte 24 Nordeste 0 936.3 -- 81
2020-07-03 05:00:00 12.2 6 Norte 21 Norte 0 936.1 -- 79
2020-07-03 04:00:00 12.5 6 Norte 24 Nordeste 0 936.2 -- 77
2020-07-03 03:00:00 12.9 8 Nordeste 22 Nordeste 0 936.1 -- 76
2020-07-03 02:00:00 13.3 6 Norte 30 Norte 0 936.2 -- 73
2020-07-03 01:00:00 13.9 8 Norte 29 Norte 0 936 -- 71
2020-07-03 00:00:00 14.4 6 Nordeste 27 Nordeste 0 935.7 -- 71
2020-07-02 23:00:00 15.8 6 Norte 30 Nordeste 0 934.8 -- 68
2020-07-02 22:00:00 18.7 10 Norte 28 Nordeste 0 933.6 -- 59
2020-07-02 21:00:00 25 9 Oeste 24 Oeste 0 932.4 -- 21
2020-07-02 20:00:00 26.9 8 Oeste 28 Noroeste 0 931.9 -- 21
2020-07-02 19:00:00 28.6 13 Oeste 28 Oeste 0 931.7 -- 21
2020-07-02 18:00:00 29.3 12 Oeste 33 Oeste 0 931.6 -- 20
2020-07-02 17:00:00 28.7 15 Oeste 35 Noroeste 0 931.5 -- 22
2020-07-02 16:00:00 28.2 11 Oeste 30 Oeste 0 932.1 -- 28
2020-07-02 15:00:00 27.5 11 Oeste 33 Oeste 0 932.4 -- 33
2020-07-02 14:00:00 27.1 13 Sudoeste 25 Sudoeste 0 932.6 -- 34
2020-07-02 13:00:00 25.7 9 Oeste 19 Oeste 0 932.6 -- 37
2020-07-02 12:00:00 24.3 5 Nordeste 17 Sudoeste 0 932.8 -- 42
2020-07-02 11:00:00 22.5 4 Nordeste 13 Nordeste 0 932.9 -- 50
2020-07-02 10:00:00 20.2 5 Norte 13 Norte 0 932.9 -- 60
2020-07-02 09:00:00 17.6 6 Norte 12 Norte 0 932.6 -- 76
2020-07-02 08:00:00 15.4 3 Norte 5 Noroeste 0 932.3 -- 88
2020-07-02 07:00:00 14.2 2 Noroeste 6 Noroeste 0 932 -- 90
2020-07-02 06:00:00 14.5 4 Oeste 7 Noroeste 0 931.6 -- 87
2020-07-02 05:00:00 15.1 4 Noroeste 8 Noroeste 0 931.6 -- 86
2020-07-02 04:00:00 15.9 4 Noroeste 9 Noroeste 0 931.7 -- 84
2020-07-02 03:00:00 16.6 3 Noroeste 12 Noroeste 0 931.9 -- 82
2020-07-02 02:00:00 17.6 4 Noroeste 13 Norte 0 931.9 -- 79
2020-07-02 01:00:00 19 6 Noroeste 17 Norte 0 931.7 -- 74
2020-07-02 00:00:00 21.1 5 Noroeste 24 Noroeste 0 931.2 -- 60
2020-07-01 23:00:00 23.5 10 Noroeste 23 Noroeste 0 930.6 -- 38
2020-07-01 22:00:00 26 9 Oeste 24 Oeste 0 930 -- 32
2020-07-01 21:00:00 28.2 9 Noroeste 32 Noroeste 0 929.6 -- 28
2020-07-01 20:00:00 30.2 16 Oeste 37 Noroeste 0 929.2 -- 23
2020-07-01 19:00:00 32.1 15 Oeste 34 Oeste 0 929.1 -- 17
2020-07-01 18:00:00 32.7 16 Oeste 40 Oeste 0 929.2 -- 17
2020-07-01 17:00:00 32.8 12 Oeste 36 Sudoeste 0 929.3 -- 19
2020-07-01 16:00:00 33 13 Oeste 33 Oeste 0 929.2 -- 21
2020-07-01 15:00:00 31.8 8 Oeste 32 Oeste 0 929.3 -- 26
2020-07-01 14:00:00 30.7 14 Oeste 30 Sudoeste 0 929.6 -- 26
2020-07-01 13:00:00 29.4 8 Oeste 25 Sudoeste 0 929.8 -- 39
2020-07-01 12:00:00 28.1 8 Sudoeste 19 Sur 0 929.7 -- 46
2020-07-01 11:00:00 -- -- -- -- -- -- -- -- --
2020-07-01 10:00:00 -- -- -- -- -- -- -- -- --
2020-07-01 09:00:00 -- -- -- -- -- -- -- -- --
2020-07-01 08:00:00 19.1 4 Noroeste 8 Noroeste 0 929.1 -- 71
2020-07-01 07:00:00 18.3 3 Oeste 12 Oeste 0 928.5 -- 75
2020-07-01 06:00:00 18.6 4 Oeste 9 Sudoeste 0 928.1 -- 75
2020-07-01 05:00:00 20 5 Sudoeste 19 Sur 0 927.8 -- 69
2020-07-01 04:00:00 19.7 5 Noroeste 14 Noroeste 0 927.5 -- 72
2020-07-01 03:00:00 20.8 6 Norte 18 Noroeste 0 927.6 -- 67
2020-07-01 02:00:00 21 7 Noroeste 17 Norte 0 927.9 -- 54
2020-07-01 01:00:00 22.8 5 Noroeste 14 Oeste 0 927.7 -- 47
2020-07-01 00:00:00 25.1 4 Norte 17 Norte 0 927.4 -- 38
2020-06-30 23:00:00 25.7 8 Noroeste 17 Noroeste 0 927.1 -- 24
2020-06-30 22:00:00 28.8 6 Oeste 17 Oeste 0 926.7 -- 23
2020-06-30 21:00:00 31.6 6 Oeste 21 Oeste 0 926.3 -- 23
2020-06-30 20:00:00 33.2 9 Oeste 29 Oeste 0 926 -- 22
2020-06-30 19:00:00 35.1 12 Oeste 32 Sudoeste 0 926.1 -- 21
2020-06-30 18:00:00 34.9 14 Sudoeste 30 Oeste 0 926.6 -- 21
2020-06-30 17:00:00 35.8 11 Oeste 34 Oeste 0 927 -- 19
2020-06-30 16:00:00 35.1 13 Sudoeste 34 Oeste 0 927.6 -- 19
2020-06-30 15:00:00 34.4 9 Sur 21 Sudeste 0 928.1 -- 20
2020-06-30 14:00:00 32.9 6 Sudoeste 14 Oeste 0 928.8 -- 26
2020-06-30 13:00:00 31.3 4 Nordeste 13 Norte 0 929.3 -- 31
2020-06-30 12:00:00 28.4 3 Nordeste 10 Este 0 929.8 -- 40
2020-06-30 11:00:00 25.1 5 Nordeste 15 Nordeste 0 930.2 -- 45
2020-06-30 10:00:00 22.2 4 Norte 12 Norte 0 930.6 -- 49
2020-06-30 09:00:00 19.3 5 Norte 14 Norte 0 930.7 -- 54
2020-06-30 08:00:00 17.2 5 Norte 14 Norte 0 930.7 -- 63
2020-06-30 07:00:00 16.1 4 Noroeste 13 Norte 0 930.7 -- 65
2020-06-30 06:00:00 16.6 5 Norte 12 Noroeste 0 930.6 -- 60
2020-06-30 05:00:00 17.1 4 Norte 16 Nordeste 0 930.7 -- 62
2020-06-30 04:00:00 17.7 5 Norte 21 Nordeste 0 930.8 -- 66
2020-06-30 03:00:00 18.7 5 Norte 18 Norte 0 931.4 -- 63
2020-06-30 02:00:00 20.5 6 Norte 22 Nordeste 0 932 -- 55
2020-06-30 01:00:00 21.5 7 Nordeste 27 Nordeste 0 932.1 -- 61
2020-06-30 00:00:00 22.9 7 Nordeste 21 Nordeste 0 931.9 -- 56
2020-06-29 23:00:00 24.7 7 Nordeste 24 Nordeste 0 931.5 -- 49
2020-06-29 22:00:00 26.8 9 Nordeste 22 Nordeste 0 930.7 -- 44
2020-06-29 21:00:00 29.8 6 Noroeste 16 Norte 0 930.5 -- 31
2020-06-29 20:00:00 31.4 5 Noroeste 18 Sudoeste 0 930.4 -- 27
2020-06-29 19:00:00 33.6 10 Oeste 20 Oeste 0 930.4 -- 24
2020-06-29 18:00:00 33.3 8 Oeste 17 Oeste 0 930.8 -- 25
2020-06-29 17:00:00 32.4 6 Sudoeste 22 Sudoeste 0 931.4 -- 27
2020-06-29 16:00:00 31.6 5 Sur 16 Este 0 931.9 -- 32
2020-06-29 15:00:00 30.2 6 Sudeste -- -- -- 932.5 -- 36
2020-06-29 14:00:00 -- -- -- -- -- -- -- -- --
2020-06-29 13:00:00 -- -- -- -- -- -- -- -- --
2020-06-29 12:00:00 -- -- -- -- -- -- -- -- --
2020-06-29 11:00:00 22.6 4 Nordeste 11 Noroeste 0 934.3 -- 61
2020-06-29 10:00:00 20.2 4 Nordeste 12 Este 0 934.6 -- 69
2020-06-29 09:00:00 18.4 3 Nordeste 10 Norte 0 934.6 -- 76
2020-06-29 08:00:00 16.1 4 Noroeste 8 Norte 0 934.5 -- 87
2020-06-29 07:00:00 14.9 4 Noroeste 7 Noroeste 0 934.1 -- 89
2020-06-29 06:00:00 15.5 3 Noroeste 8 Noroeste 0 934 -- 86
2020-06-29 05:00:00 16.5 4 Noroeste 12 Norte 0 934.1 -- 84
2020-06-29 04:00:00 16.6 4 Noroeste 9 Noroeste 0 934.1 -- 83
2020-06-29 03:00:00 17.3 4 Norte 15 Noroeste 0 934.3 -- 80
2020-06-29 02:00:00 18.5 6 Noroeste 19 Norte 0 934.4 -- 76
2020-06-29 01:00:00 20.6 7 Noroeste 26 Noroeste 0 934.4 -- 61
2020-06-29 00:00:00 22.7 12 Noroeste 24 Noroeste 0 933.9 -- 53
2020-06-28 23:00:00 24.3 9 Noroeste 28 Oeste 0 933.4 -- 49
2020-06-28 22:00:00 26.7 8 Oeste 18 Oeste 0 932.9 -- 40
2020-06-28 21:00:00 28.7 11 Oeste 24 Oeste 0 932.7 -- 34
2020-06-28 20:00:00 30.3 8 Sudoeste 26 Oeste 0 932.5 -- 29
2020-06-28 19:00:00 31.5 10 Oeste 22 Oeste 0 932.6 -- 26
2020-06-28 18:00:00 31.6 13 Oeste 22 Oeste 0 933 -- 27
2020-06-28 17:00:00 31.5 9 Oeste 28 Sur 0 933.3 -- 29
2020-06-28 16:00:00 30.9 6 Oeste 21 Oeste 0 933.6 -1.4 31
2020-06-28 15:00:00 29.6 8 Oeste 17 Sur 0 934.1 -- 33
2020-06-28 14:00:00 29 6 Oeste 17 Norte 0 934.4 -- 36
2020-06-28 13:00:00 27 6 Noroeste 20 Sudoeste 0 935 -- 40
2020-06-28 12:00:00 24.6 8 Sur 17 Sudoeste 0 935.3 -- 50
2020-06-28 11:00:00 22.5 5 Sur 13 Sudoeste 0 935.4 -- 58
2020-06-28 10:00:00 21 4 Sudoeste 8 Oeste 0 935.5 -- 64
2020-06-28 09:00:00 18.7 3 Noroeste 7 Oeste 0 935.3 -- 72
2020-06-28 08:00:00 16 0 Calma 6 Noroeste 0 935 -- 83
2020-06-28 07:00:00 15.6 3 Oeste 8 Sudeste 0 934.7 -- 83
2020-06-28 06:00:00 15.4 5 Oeste 7 Oeste 0 934.6 -- 82
2020-06-28 05:00:00 16 4 Oeste 6 Oeste 0 934.4 -- 78
2020-06-28 04:00:00 16.6 5 Oeste 8 Oeste 0 934.6 -- 76
2020-06-28 03:00:00 17.7 3 Oeste 8 Oeste 0 934.5 -- 72
2020-06-28 02:00:00 18.3 4 Oeste 10 Noroeste 0 934.5 -- 69
2020-06-28 01:00:00 18.9 7 Noroeste 17 Noroeste 0 934.4 -- 66
2020-06-28 00:00:00 20.2 6 Oeste 18 Oeste 0 934 -- 61
2020-06-27 23:00:00 21.9 7 Oeste 22 Oeste 0 933.6 -- 55
2020-06-27 22:00:00 24.2 9 Oeste 19 Oeste 0 932.9 -- 46
2020-06-27 21:00:00 25.5 12 Oeste 24 Oeste 0 932.6 -- 43
2020-06-27 20:00:00 27 8 Oeste 27 Oeste 0 932.3 -- 38
2020-06-27 19:00:00 28.8 10 Oeste 24 Oeste 0 932.3 -- 34
2020-06-27 18:00:00 29 13 Oeste 29 Oeste 0 932.6 -- 35
2020-06-27 17:00:00 28.3 12 Oeste 32 Oeste 0 932.5 -- 38
2020-06-27 16:00:00 27.5 9 Oeste 26 Sudoeste 0 932.8 -- 38
2020-06-27 15:00:00 27 10 Oeste 26 Sudoeste 0 933.1 -- 40
2020-06-27 14:00:00 25.5 8 Sudoeste 23 Sudoeste 0 933.4 -- 43
2020-06-27 13:00:00 23.8 8 Oeste 21 Sudoeste 0 933.7 -- 48
2020-06-27 12:00:00 22.1 11 Oeste 23 Noroeste 0 933.9 -- 53
2020-06-27 11:00:00 20 12 Oeste 22 Oeste 0 933.9 -- 61
2020-06-27 10:00:00 18.3 9 Sudoeste 21 Oeste 0 933.8 -- 70
2020-06-27 09:00:00 16.1 9 Sudoeste 16 Sudoeste 0 933.5 -- 79
2020-06-27 08:00:00 15.4 6 Sur 13 Sur 0 933.4 -- 82
2020-06-27 07:00:00 14.8 4 Sudoeste 13 Sudoeste 0 932.8 -- 83
2020-06-27 06:00:00 15.6 6 Sur 15 Sudoeste 0 932.5 -- 79
2020-06-27 05:00:00 16.2 9 Sudoeste 21 Oeste 0 932.6 -- 76
2020-06-27 04:00:00 16.8 12 Oeste 19 Sudoeste 0 932.2 -- 75
2020-06-27 03:00:00 17.3 9 Oeste 19 Oeste 0 931.9 -- 71
2020-06-27 02:00:00 18.2 7 Oeste 22 Oeste 0 931.8 -- 67
2020-06-27 01:00:00 19 8 Oeste 24 Oeste 0 931.7 -- 62
2020-06-27 00:00:00 19.9 10 Oeste 26 Oeste 0 931.4 -- 55
2020-06-26 23:00:00 20.9 9 Oeste 21 Oeste 0 931.1 -- 47
2020-06-26 22:00:00 22.7 8 Oeste 26 Oeste 0 930.2 -- 41
2020-06-26 21:00:00 24.4 13 Oeste 28 Oeste 0 929.8 -- 35
2020-06-26 20:00:00 25.7 14 Oeste 31 Oeste 0 929.6 -- 29
2020-06-26 19:00:00 26 13 Oeste 30 Oeste 0 929.3 -- 25
2020-06-26 18:00:00 27 16 Oeste 35 Oeste 0 929.3 -- 20
2020-06-26 17:00:00 28.2 13 Oeste 33 Oeste 0 929.4 -- 23
2020-06-26 16:00:00 27 15 Oeste 33 Oeste 0 929.8 -- 24
2020-06-26 15:00:00 26.1 12 Oeste 29 Oeste 0 930.2 -- 38
2020-06-26 14:00:00 24.2 10 Sudoeste 23 Oeste 0 930.5 -- 47
2020-06-26 13:00:00 23.3 9 Sudoeste 22 Sudoeste 0 930.3 -- 54
2020-06-26 12:00:00 22.8 8 Sur 18 Sudoeste 0 930.3 -- 60
2020-06-26 11:00:00 20.9 6 Sur 19 Oeste 0 930.5 -- 68
2020-06-26 10:00:00 18.5 5 Sudoeste 15 Sudoeste 0 930.5 -- 81
2020-06-26 09:00:00 16.6 6 Sur 12 Sur 0 930.3 -- 84
2020-06-26 08:00:00 15.6 6 Sudoeste 12 Sur 0 929.7 -- 90
2020-06-26 07:00:00 15.3 2 Sur 5 Sudoeste 0 929.6 -- 90
2020-06-26 06:00:00 16 0 Calma 9 Sur 0 929.4 -- 89
2020-06-26 05:00:00 16.7 4 Sudeste 7 Sudeste 0 929.4 -- 87
2020-06-26 04:00:00 17.3 0 Calma 12 Este 0 929.5 -- 84
2020-06-26 03:00:00 17.4 0 Calma 5 Oeste 0 929.5 -- 91
2020-06-26 02:00:00 18.1 2 Noroeste 6 Noroeste 0 929.9 -- 91
2020-06-26 01:00:00 19 2 Noroeste 7 Noroeste 0 930 -- 90
2020-06-26 00:00:00 19.8 3 Noroeste 5 Oeste 0 929.8 -- 85
2020-06-25 23:00:00 20.8 2 Noroeste 7 Oeste 0 929.9 -- 83
2020-06-25 22:00:00 21.8 3 Oeste 9 Nordeste 0 929.5 -- 80
2020-06-25 21:00:00 22.5 3 Este 13 Sur 1 929.2 -- 74
2020-06-25 20:00:00 26 7 Sur 17 Sudeste 0 929 -- 52
2020-06-25 19:00:00 28 6 Sudeste 22 Sudoeste 0 928.9 -- 43
2020-06-25 18:00:00 29 10 Este 17 Este 0 928.7 -- 38
2020-06-25 17:00:00 30.3 5 Sudoeste 21 Sudoeste 0 929.1 -- 33
2020-06-25 16:00:00 30.9 6 Noroeste 16 Nordeste 0 929.6 -- 31
2020-06-25 15:00:00 30.2 5 Nordeste 15 Este 0 930 -- 35
2020-06-25 14:00:00 27.7 5 Nordeste 9 Este 0 930.8 -- 39
2020-06-25 13:00:00 25.8 3 Sur 12 Sudeste 0 931.4 -- 45
2020-06-25 12:00:00 24.2 0 Calma 14 Este 0 931.3 -- 51
2020-06-25 11:00:00 23.1 8 Este 15 Este 0 931.1 -- 53
2020-06-25 10:00:00 21.3 4 Norte 10 Nordeste 0 930.9 -- 65
2020-06-25 09:00:00 19.6 3 Norte 12 Norte 0 930.9 -- 68
2020-06-25 08:00:00 17.4 3 Noroeste 10 Noroeste 0 930.7 -- 77
2020-06-25 07:00:00 15.8 5 Oeste 8 Oeste 0 930.6 -- 80
2020-06-25 06:00:00 16 3 Noroeste 7 Noroeste 0 930.4 -- 81
2020-06-25 05:00:00 16.5 5 Noroeste 8 Oeste 0 930.8 -- 79
2020-06-25 04:00:00 17.3 5 Oeste 8 Norte 0 931.5 -- 79
2020-06-25 03:00:00 18.1 4 Nordeste 12 Este 0 931.8 -- 76
2020-06-25 02:00:00 18.3 4 Nordeste 13 Norte 0 932.2 -- 77
2020-06-25 01:00:00 18.5 5 Norte 12 Norte 0 933 -- 78
2020-06-25 00:00:00 18.2 5 Norte 21 Norte 0 932.9 -- 82
2020-06-24 23:00:00 18.3 13 Norte 36 Norte 2 933.1 -- 75
2020-06-24 22:00:00 24.1 6 Noroeste 11 Noroeste 0 932.3 -- 37
2020-06-24 21:00:00 25.3 4 Norte 18 Noroeste 0 931.6 -- 34
2020-06-24 20:00:00 26.2 4 Norte 23 Oeste 0 931.5 -- 34
2020-06-24 19:00:00 27.3 8 Oeste 23 Oeste 0 931.2 -- 30
2020-06-24 18:00:00 28.9 10 Sudoeste 19 Sudoeste 0 932.4 -- 30
2020-06-24 17:00:00 29.9 8 Sudoeste 28 Este 0 931.4 -- 27
2020-06-24 16:00:00 28.4 10 Sudeste 32 Sur 0 931 -- 25
2020-06-24 15:00:00 27.1 14 Sudoeste 29 Sudoeste 0 932.3 -- 36
2020-06-24 14:00:00 28 10 Sudoeste 30 Sur 0 932.2 -- 35
2020-06-24 13:00:00 26.8 9 Sur 24 Sur 0 930.7 -- 36
2020-06-24 12:00:00 24.4 7 Sudoeste 15 Sudoeste 0 931.3 -- 48
2020-06-24 11:00:00 21.6 4 Norte 8 Norte 0 931.3 -- 62
2020-06-24 10:00:00 19.5 3 Noroeste 7 Este 0 931.6 -- 73
2020-06-24 09:00:00 18.9 4 Este 11 Este 0 931.3 -- 72
2020-06-24 08:00:00 17.8 2 Nordeste 10 Noroeste 0.6 931.2 -- 76
2020-06-24 07:00:00 19.5 3 Norte 11 Norte 0 930.9 -- 55
2020-06-24 06:00:00 20.1 4 Norte 12 Nordeste 0 930.7 -- 51
2020-06-24 05:00:00 21.8 3 Noroeste 9 Sudeste 0 930.9 -- 43
2020-06-24 04:00:00 23.7 5 Sudeste 16 Sudeste 0 931.2 -- 36
2020-06-24 03:00:00 23.9 5 Nordeste 26 Este 0 930.9 -- 37
2020-06-24 02:00:00 24.8 6 Este 15 Este 0 931.3 -- 35
2020-06-24 01:00:00 25.4 7 Este 14 Este 0 931.5 -- 36
2020-06-24 00:00:00 25.9 5 Norte 21 Noroeste 0.2 931.5 -- 35
2020-06-23 23:00:00 27.2 0 Calma 24 Sur 0 931.4 -- 34
2020-06-23 22:00:00 29.3 5 Oeste 13 Noroeste 0 930.7 -- 21
2020-06-23 21:00:00 31.5 4 Sudeste 13 Sudeste 0 929.9 -- 21
2020-06-23 20:00:00 33 8 Sudeste 23 Sudeste 0 929.7 -- 18
2020-06-23 19:00:00 34.4 9 Sudeste 26 Sudeste 0 929.7 -- 18
2020-06-23 18:00:00 36.5 5 Sudoeste 24 Sudoeste 0 929.7 -- 13
2020-06-23 17:00:00 36.7 5 Norte 26 Oeste 0 930.1 -- 13
2020-06-23 16:00:00 36.2 9 Noroeste 27 Sur 0 930.6 -- 15
2020-06-23 15:00:00 35.4 9 Sur 20 Sur 0 931.2 -- 15
2020-06-23 14:00:00 34.3 6 Sudoeste 17 Sudoeste 0 931.8 -- 22
2020-06-23 13:00:00 31.8 4 Este 10 Sur 0 932.3 -- 25
2020-06-23 12:00:00 29.2 4 Nordeste 8 Nordeste 0 932.6 -- 32
2020-06-23 11:00:00 25.9 3 Nordeste 9 Norte 0 933 -- 41
2020-06-23 10:00:00 22.1 5 Nordeste 10 Noroeste 0 933.3 -- 51
2020-06-23 09:00:00 18.9 4 Norte 11 Norte 0 933.4 -- 63
2020-06-23 08:00:00 16.6 4 Norte 8 Norte 0 933.3 -- 74
2020-06-23 07:00:00 15.7 3 Noroeste 14 Norte 0 933.3 -- 78
2020-06-23 06:00:00 16.2 4 Noroeste 13 Norte 0 933.3 -- 76
2020-06-23 05:00:00 17.2 5 Norte 14 Noroeste 0 933.4 -- 71
2020-06-23 04:00:00 18 5 Norte 14 Noroeste 0 933.8 -- 68
2020-06-23 03:00:00 19 5 Noroeste 15 Norte 0 934.3 -- 63
2020-06-23 02:00:00 20.3 5 Norte 15 Norte 0 934.6 -- 59
2020-06-23 01:00:00 21.1 4 Norte 12 Norte 0 934.8 -- 53
2020-06-23 00:00:00 22.5 4 Noroeste 19 Nordeste 0 935 -- 43
2020-06-22 23:00:00 24.9 5 Nordeste 17 Nordeste 0 934.7 -- 34
2020-06-22 22:00:00 27.1 6 Nordeste 24 Norte 0 934.1 -- 26
2020-06-22 21:00:00 29.6 6 Nordeste 17 Norte 0 933.8 -- 21
2020-06-22 20:00:00 31 4 Norte 16 Norte 0 933.8 -- 20
2020-06-22 19:00:00 32.5 7 Norte 16 Este 0 934.1 -- 19
2020-06-22 18:00:00 33 6 Nordeste 18 Nordeste 0 934.6 -- 20
2020-06-22 17:00:00 32.8 4 Nordeste 19 Norte 0 935.3 -- 20
2020-06-22 16:00:00 32.2 8 Sudeste 25 Nordeste 0 936.2 -- 22
2020-06-22 15:00:00 31 6 Norte 22 Norte 0 937 -- 25
2020-06-22 14:00:00 29.6 6 Norte 18 Este 0 937.9 -- 28
2020-06-22 13:00:00 28 6 Nordeste 19 Noroeste 0 938.5 -- 34
2020-06-22 12:00:00 25 6 Norte 17 Norte 0 938.8 -- 45
2020-06-22 11:00:00 22.3 6 Norte 15 Norte 0 939.2 -- 55
2020-06-22 10:00:00 19.3 5 Norte 14 Noroeste 0 939.8 -- 66
2020-06-22 09:00:00 17.5 4 Nordeste 14 Norte 0 939.9 -- 73
2020-06-22 08:00:00 15.3 4 Norte 12 Noroeste 0 939.9 -- 83
2020-06-22 07:00:00 14.3 4 Norte 14 Norte 0 939.7 -- 86
2020-06-22 06:00:00 14.4 4 Norte 16 Norte 0 939.6 -- 85
2020-06-22 05:00:00 14.8 5 Norte 14 Norte 0 939.8 -- 83
2020-06-22 04:00:00 15.3 4 Norte 15 Noroeste 0 940 -- 81
2020-06-22 03:00:00 16.2 5 Norte 21 Norte 0 940.1 -- 78
2020-06-22 02:00:00 16.9 7 Norte 23 Norte 0 940.2 -- 76
2020-06-22 01:00:00 18.1 7 Norte 24 Norte 0 940.2 -- 71
2020-06-22 00:00:00 20.2 7 Norte 26 Nordeste 0 939.9 -- 63
2020-06-21 23:00:00 23.2 9 Nordeste 26 Este 0 939.2 -- 51
2020-06-21 22:00:00 25.4 6 Noroeste 14 Norte 0 938.1 -- 34
2020-06-21 21:00:00 27.4 8 Norte 18 Norte 0 937.9 -- 25
2020-06-21 20:00:00 28.9 6 Norte 17 Noroeste 0 937.5 -- 21
2020-06-21 19:00:00 30.4 5 Norte 17 Norte 0 937.5 -- 17
2020-06-21 18:00:00 31.4 6 Noroeste 17 Noroeste 0 937.9 -- 18
2020-06-21 17:00:00 30.6 8 Noroeste 18 Norte 0 938.3 -- 17
2020-06-21 16:00:00 30.4 9 Noroeste 21 Norte 0 938.7 -- 21
2020-06-21 15:00:00 29.3 5 Nordeste 14 Sudeste 0 939 -- 24
2020-06-21 14:00:00 27 7 Sudeste 16 Sur 0 939.5 -- 26
2020-06-21 13:00:00 26.4 7 Oeste 15 Sudoeste 0 939.7 -- 31
2020-06-21 12:00:00 24.5 6 Sudoeste 17 Oeste 0 939.8 -- 38
2020-06-21 11:00:00 22.1 5 Sur 11 Sudoeste 0 939.9 -- 45
2020-06-21 10:00:00 20.9 3 Norte 9 Noroeste 0 940 -- 48
2020-06-21 09:00:00 18.5 4 Oeste 9 Oeste 0 939.8 -- 55
2020-06-21 08:00:00 15.1 2 Sur 9 Sudoeste 0 939.4 -- 67
2020-06-21 07:00:00 14.5 2 Oeste 9 Oeste 0 938.8 -- 69
2020-06-21 06:00:00 14.8 4 Noroeste 7 Sudoeste 0 938.6 -- 62
2020-06-21 05:00:00 15.6 4 Sudoeste 9 Sudoeste 0 938.5 -- 59
2020-06-21 04:00:00 17.4 6 Sudoeste 17 Noroeste 0 938.4 -- 53
2020-06-21 03:00:00 17.5 5 Noroeste 12 Noroeste 0 938.5 -- 50
2020-06-21 02:00:00 17.6 5 Noroeste 17 Noroeste 0 938.2 -- 48
2020-06-21 01:00:00 18.3 9 Oeste 19 Oeste 0 938 -- 44
2020-06-21 00:00:00 19.7 9 Oeste 19 Oeste 0 937.7 -- 43
2020-06-20 23:00:00 21.3 5 Oeste 13 Oeste 0 937.2 -- 37
2020-06-20 22:00:00 24 7 Oeste 28 Oeste 0 936.5 -- 30
2020-06-20 21:00:00 27.1 10 Oeste 28 Oeste 0 936.1 -- 27
2020-06-20 20:00:00 29 10 Oeste 27 Oeste 0 935.8 -- 21
2020-06-20 19:00:00 30.8 10 Oeste 28 Oeste 0 935.6 -- 21
2020-06-20 18:00:00 30.3 9 Sudoeste 23 Sudoeste 0 935.9 -- 19
2020-06-20 17:00:00 30.2 9 Sudoeste 29 Oeste 0 936 -- 18
2020-06-20 16:00:00 29.5 8 Sudoeste 26 Sudoeste 0 936.5 -- 19
2020-06-20 15:00:00 27.5 8 Sur 27 Sur 0 936.7 -- 26
2020-06-20 14:00:00 26.8 8 Sur 17 Sur 0 937.1 -- 33
2020-06-20 13:00:00 25.1 8 Sudeste 16 Sudeste 0 937.5 -- 36
2020-06-20 12:00:00 23 4 Sudoeste 10 Este 0 937.7 -- 42
2020-06-20 11:00:00 20.5 3 Oeste 8 Sudoeste 0 937.8 -- 47
2020-06-20 10:00:00 17.6 5 Nordeste 9 Nordeste 0 937.7 -- 54
2020-06-20 09:00:00 15.5 3 Nordeste 9 Norte 0 937.4 -- 61
2020-06-20 08:00:00 13 3 Noroeste 8 Norte 0 937.2 -- 76
2020-06-20 07:00:00 11.7 4 Noroeste 8 Noroeste 0 937 -- 80
2020-06-20 06:00:00 12.1 3 Noroeste 6 Noroeste 0 936.5 -- 79
2020-06-20 05:00:00 13 3 Noroeste 7 Noroeste 0 936.5 -- 75
2020-06-20 04:00:00 13.8 3 Noroeste 12 Norte 0 936.3 -- 78
2020-06-20 03:00:00 15 4 Norte 15 Noroeste 0 936.3 -- 77
2020-06-20 02:00:00 16.4 6 Noroeste 23 Norte 0 936.1 -- 60
2020-06-20 01:00:00 18.9 10 Noroeste 23 Noroeste 0 935.8 -- 47
2020-06-20 00:00:00 18.1 9 Oeste 19 Noroeste 0 935.5 -- 44
2020-06-19 23:00:00 20 6 Oeste 14 Oeste 0 934.8 -- 40
2020-06-19 22:00:00 22.4 6 Oeste 15 Noroeste 0 934.1 -- 34
2020-06-19 21:00:00 25.2 6 Oeste 22 Oeste 0 933.5 -- 24
2020-06-19 20:00:00 27 10 Oeste 23 Oeste 0 933 -- 21
2020-06-19 19:00:00 28.4 9 Oeste 32 Oeste 0 932.9 -- 19
2020-06-19 18:00:00 28.4 11 Oeste 25 Oeste 0 933 -- 15
2020-06-19 17:00:00 27.9 11 Sudoeste 24 Sudoeste 0 933.2 -- 19
2020-06-19 16:00:00 27.4 8 Oeste 28 Oeste 0 933.4 -- 22
2020-06-19 15:00:00 26.5 11 Oeste 26 Sudoeste 0 933.5 -- 25
2020-06-19 14:00:00 25.1 11 Sudoeste 25 Sudoeste 0 933.7 -- 32
2020-06-19 13:00:00 23.6 6 Oeste 20 Oeste 0 933.9 -- 40
2020-06-19 12:00:00 21.9 6 Sudoeste 17 Oeste 0 933.9 -- 45
2020-06-19 11:00:00 18.7 5 Sudoeste 13 Sur 0 933.8 -- 59
2020-06-19 10:00:00 16.2 5 Sudoeste 12 Sudoeste 0 933.8 -- 67
2020-06-19 09:00:00 13.7 3 Noroeste 7 Noroeste 0 933.6 -- 77
2020-06-19 08:00:00 11.3 2 Noroeste 6 Norte 0 933.3 -- 89
2020-06-19 07:00:00 10.2 3 Noroeste 9 Norte 0 932.7 -- 91
2020-06-19 06:00:00 10.6 3 Noroeste 12 Norte 0 932.2 -- 90
2020-06-19 05:00:00 11 5 Norte 14 Norte 0 932 -- 88
2020-06-19 04:00:00 11.5 5 Noroeste 14 Norte 0 931.8 -- 87
2020-06-19 03:00:00 12.9 6 Norte 17 Norte 0 931.7 -- 81
2020-06-19 02:00:00 13.9 6 Noroeste 18 Norte 0 931.9 -- 75
2020-06-19 01:00:00 15.2 4 Noroeste 11 Noroeste 0 931.7 -- 59
2020-06-19 00:00:00 17.2 5 Oeste 8 Oeste 0 931.2 -- 47
2020-06-18 23:00:00 18.7 5 Oeste 7 Oeste 0 930.9 -- 44
2020-06-18 22:00:00 20.7 4 Noroeste 9 Noroeste 0 930.1 -- 37
2020-06-18 21:00:00 22.4 5 Noroeste 18 Oeste 0 929.6 -- 32
2020-06-18 20:00:00 23.3 7 Noroeste 26 Oeste 0 929.2 -- 31
2020-06-18 19:00:00 25.2 7 Oeste 22 Oeste 0 929.1 -- 27
2020-06-18 18:00:00 24.5 6 Noroeste 22 Sudoeste 0 929.3 -- 29
2020-06-18 17:00:00 25.3 9 Oeste 26 Oeste 0 929.6 -- 27
2020-06-18 16:00:00 24 7 Noroeste 19 Noroeste 0 929.7 -- 34
2020-06-18 15:00:00 23.2 4 Norte 11 Sur 0 929.9 -- 39
2020-06-18 14:00:00 21.4 4 Este 12 Nordeste 0 930.1 -- 43
2020-06-18 13:00:00 21.1 8 Este 15 Este 0 930.3 -- 45
2020-06-18 12:00:00 19.9 7 Este 15 Este 0 930.5 -- 49
2020-06-18 11:00:00 17.7 5 Noroeste 10 Noroeste 0 930.5 -- 58
2020-06-18 10:00:00 15.9 3 Nordeste 10 Norte 0 930.7 -- 66
2020-06-18 09:00:00 13.7 4 Norte 8 Norte 0 930.2 -- 75
2020-06-18 08:00:00 12.1 3 Norte 11 Nordeste 0 930.1 -- 83
2020-06-18 07:00:00 10.8 5 Norte 14 Noroeste 0 929.8 -- 88
2020-06-18 06:00:00 11.3 5 Norte 13 Norte 0 929.6 -- 86
2020-06-18 05:00:00 11.3 5 Norte 14 Norte 0 929.6 -- 85
2020-06-18 04:00:00 11.6 5 Norte 18 Norte 0 929.9 -- 83
2020-06-18 03:00:00 11.3 6 Noroeste 15 Norte 0 930.2 -- 83
2020-06-18 02:00:00 12.3 4 Noroeste 14 Norte 0 930.4 -- 79
2020-06-18 01:00:00 13.9 6 Norte 24 Norte 0 930.7 -- 72
2020-06-18 00:00:00 15.8 6 Norte 21 Norte 0 930.5 -- 63
2020-06-17 23:00:00 18.3 3 Noroeste 6 Noroeste 0 930.2 -- 41
2020-06-17 22:00:00 19.2 3 Norte 7 Noroeste 0 929.6 -- 37
2020-06-17 21:00:00 20 3 Norte 10 Noroeste 0 929.6 -- 36
2020-06-17 20:00:00 20.7 5 Noroeste 16 Noroeste 0 929.7 -- 33
2020-06-17 19:00:00 22.3 9 Oeste 23 Sudoeste 0 930.1 -- 30
2020-06-17 18:00:00 22.3 6 Oeste 19 Oeste 0 930.6 -- 31
2020-06-17 17:00:00 22.8 10 Sudoeste 18 Sudoeste 0 930.8 -- 29
2020-06-17 16:00:00 22.3 6 Sur 17 Sudoeste 0 931.2 -- 31
2020-06-17 15:00:00 21 7 Sudoeste 18 Oeste 0 931.8 -- 36
2020-06-17 14:00:00 19.4 4 Sudeste 13 Sudoeste 0 932.4 -- 42
2020-06-17 13:00:00 18.2 5 Sudeste 9 Sur 0 932.9 -- 45
2020-06-17 12:00:00 17.7 5 Sudeste 12 Sur 0 933 -- 49
2020-06-17 11:00:00 16.7 4 Este 10 Este 0 933.1 -- 57
2020-06-17 10:00:00 15.4 4 Este 13 Nordeste 0 933.3 -- 64
2020-06-17 09:00:00 13.5 4 Sur 10 Sudeste 0 933.2 -- 73
2020-06-17 08:00:00 11.2 4 Este 9 Este 0 933.2 -- 83
2020-06-17 07:00:00 10.2 3 Noroeste 5 Noroeste 0 933 -- 91
2020-06-17 06:00:00 10.7 0 Calma 6 Este 0 932.7 -- 88
2020-06-17 05:00:00 10.4 2 Noroeste 5 Noroeste 0 932.8 -- 90
2020-06-17 04:00:00 10.7 5 Oeste 8 Oeste 0 933 -- 89
2020-06-17 03:00:00 11.4 4 Noroeste 7 Noroeste 0 933.6 -- 86
2020-06-17 02:00:00 12.4 3 Norte 12 Norte 0 934 -- 80
2020-06-17 01:00:00 13.5 6 Noroeste 17 Norte 0 934.3 -- 66
2020-06-17 00:00:00 13.9 8 Noroeste 19 Noroeste 0 934.4 -- 63
2020-06-16 23:00:00 14.9 10 Noroeste 24 Noroeste 0 933.8 -- 57
2020-06-16 22:00:00 16.4 10 Noroeste 34 Norte 0 933.2 -- 49
2020-06-16 21:00:00 18.7 11 Noroeste 34 Oeste 0 932.7 -- 46
2020-06-16 20:00:00 21.1 14 Oeste 40 Oeste 0 932.2 -- 40
2020-06-16 19:00:00 22.8 16 Oeste 43 Oeste 0 932.1 -- 37
2020-06-16 18:00:00 23.1 20 Oeste 44 Oeste 0 932.2 -- 35
2020-06-16 17:00:00 21.9 12 Oeste 40 Sudoeste 0 932.6 -- 44
2020-06-16 16:00:00 18.8 7 Oeste 35 Noroeste 0.8 933.2 -- 70
2020-06-16 15:00:00 20 9 Oeste 26 Oeste 0.2 933.6 -- 53
2020-06-16 14:00:00 20.6 12 Oeste 24 Oeste 0 934 -- 43
2020-06-16 13:00:00 19.8 9 Sudoeste 29 Oeste 0 934.6 -- 46
2020-06-16 12:00:00 20.2 10 Oeste 22 Oeste 0 934.8 -- 46
2020-06-16 11:00:00 18.1 9 Oeste 19 Oeste 0 935.2 -- 51
2020-06-16 10:00:00 17 5 Sudoeste 13 Oeste 0 935.5 -- 58
2020-06-16 09:00:00 14 7 Oeste 14 Oeste 0 935.6 -- 73
2020-06-16 08:00:00 13.2 0 Calma 8 Sudoeste 0 935.5 -- 79
2020-06-16 07:00:00 12.5 4 Sur 16 Sudoeste 0 935.4 -- 80
2020-06-16 06:00:00 13.4 7 Sudoeste 14 Sudoeste 0 935.3 -- 68
2020-06-16 05:00:00 13.3 4 Oeste 11 Sudoeste 0 935.3 -- 69
2020-06-16 04:00:00 13.7 5 Sudoeste 13 Oeste 0 935.5 -- 70
2020-06-16 03:00:00 13.9 6 Oeste 15 Oeste 0 936.1 -- 69
2020-06-16 02:00:00 14.4 5 Sudoeste 19 Oeste 0 936.5 -- 68
2020-06-16 01:00:00 14.9 8 Oeste 22 Oeste 0 936.6 -- 65
2020-06-16 00:00:00 15.4 10 Oeste 22 Noroeste 0 936.5 -- 61
2020-06-15 23:00:00 16.2 9 Oeste 21 Oeste 0 936.3 -- 61
2020-06-15 22:00:00 17.1 10 Oeste 29 Oeste 0 936 -- 55
2020-06-15 21:00:00 18.6 9 Oeste 27 Oeste 0 935.9 -- 49
2020-06-15 20:00:00 20 9 Oeste 23 Oeste 0 935.5 -- 44
2020-06-15 19:00:00 21.6 12 Oeste 26 Oeste 0 935.6 -- 39
2020-06-15 18:00:00 22.3 10 Oeste 27 Oeste 0 935.8 -- 37
2020-06-15 17:00:00 22.9 9 Oeste 27 Oeste 0 935.8 -- 35
2020-06-15 16:00:00 23.2 10 Oeste 27 Oeste 0 936.1 -- 36
2020-06-15 15:00:00 21.5 9 Sudoeste 25 Oeste 0 936.5 -- 42
2020-06-15 14:00:00 20.2 8 Sur 22 Sur 0 937.1 -- 45
2020-06-15 13:00:00 19.4 6 Sudoeste 16 Sudoeste 0 937.4 -- 50
2020-06-15 12:00:00 17.2 7 Sudoeste 13 Oeste 0 937.5 -- 53
2020-06-15 11:00:00 15.5 3 Sur 8 Norte 0 937.5 -- 61
2020-06-15 10:00:00 14.5 3 Oeste 7 Nordeste 0 937.6 -- 63
2020-06-15 09:00:00 13.6 0 Calma 6 Sudeste 0 937.3 -- 69
2020-06-15 08:00:00 11.4 2 Noroeste 5 Oeste 0 937.2 -- 80
2020-06-15 07:00:00 10.3 3 Oeste 7 Noroeste 0 936.8 -- 81
2020-06-15 06:00:00 10.7 4 Oeste 7 Oeste 0 936.5 -- 82
2020-06-15 05:00:00 11.8 2 Noroeste 8 Noroeste 0 936.5 -- 77
2020-06-15 04:00:00 13.1 3 Noroeste 9 Norte 0 936.6 -- 74
2020-06-15 03:00:00 13.7 4 Oeste 9 Oeste 0 936.8 -- 69
2020-06-15 02:00:00 14.1 4 Oeste 12 Oeste 0 936.8 -- 67
2020-06-15 01:00:00 14.8 6 Noroeste 16 Noroeste 0 936.6 -- 65
2020-06-15 00:00:00 15.4 6 Noroeste 19 Noroeste 0 936.7 -- 64
2020-06-14 23:00:00 15.8 6 Noroeste 18 Noroeste 0 936.4 -- 61
2020-06-14 22:00:00 16.9 7 Oeste 22 Oeste 0 935.8 -- 55
2020-06-14 21:00:00 18.7 12 Oeste 24 Oeste 0 935.5 -- 46
2020-06-14 20:00:00 19.8 9 Oeste 30 Oeste 0 935 -- 42
2020-06-14 19:00:00 21.6 9 Oeste 25 Oeste 0 934.6 -- 38
2020-06-14 18:00:00 21.4 11 Oeste 30 Oeste 0 934.7 -- 36
2020-06-14 17:00:00 22.2 13 Oeste 30 Oeste 0 934.8 -- 33
2020-06-14 16:00:00 22.1 11 Oeste 28 Oeste 0 934.9 -- 32
2020-06-14 15:00:00 21.4 15 Oeste 32 Oeste 0 935.2 -- 33
2020-06-14 14:00:00 21.5 13 Oeste 28 Oeste 0 935.7 -- 33
2020-06-14 13:00:00 20.5 10 Oeste 27 Oeste 0 935.7 -- 36
2020-06-14 12:00:00 18.7 10 Oeste 24 Oeste 0 935.5 -- 40
2020-06-14 11:00:00 16.6 6 Sur 18 Oeste 0 935.4 -- 52
2020-06-14 10:00:00 14 6 Oeste 16 Oeste 0 935.4 -- 62
2020-06-14 09:00:00 13.2 5 Sudoeste 13 Sudoeste 0 935.1 -- 67
2020-06-14 08:00:00 11.6 2 Oeste 8 Sudoeste 0 934.7 -- 77
2020-06-14 07:00:00 11.1 2 Sudeste 12 Sudoeste 0 934.4 -- 76
2020-06-14 06:00:00 11.2 6 Sudoeste 12 Sudoeste 0 934.1 -- 75
2020-06-14 05:00:00 11.7 4 Oeste 14 Sudoeste 0 933.9 -- 73
2020-06-14 04:00:00 12.3 5 Oeste 11 Sudoeste 0 934 -- 68
2020-06-14 03:00:00 12 5 Oeste 12 Oeste 0 933.9 -- 71
2020-06-14 02:00:00 12 4 Oeste 11 Noroeste 0 933.9 -- 71
2020-06-14 01:00:00 12.1 6 Oeste 11 Oeste 0 933.9 -- 70
2020-06-14 00:00:00 12.8 6 Oeste 9 Oeste 0 933.7 -- 69
2020-06-13 23:00:00 13.6 4 Oeste 9 Oeste 0 933.5 -- 69
2020-06-13 22:00:00 15.7 4 Oeste 21 Oeste 0 932.6 -- 58
2020-06-13 21:00:00 17.2 10 Oeste 24 Oeste 0 932.1 -- 51
2020-06-13 20:00:00 18 8 Oeste 26 Oeste 0 931.9 -- 49
2020-06-13 19:00:00 18.2 13 Oeste 32 Oeste 0 931.6 -- 52
2020-06-13 18:00:00 19.4 11 Oeste 29 Oeste 0 931.6 -- 46
2020-06-13 17:00:00 19 15 Oeste 33 Oeste 0 931.5 -- 43
2020-06-13 16:00:00 19.3 15 Oeste 30 Oeste 0 931.2 -- 43
2020-06-13 15:00:00 18.1 11 Oeste 30 Oeste 0 931.2 -- 46
2020-06-13 14:00:00 17.9 13 Oeste 29 Oeste 0 931.2 -- 48
2020-06-13 13:00:00 17.7 10 Sudoeste 29 Oeste 0 931 -- 50
2020-06-13 12:00:00 15.8 12 Oeste 35 Oeste 0 931 -- 56
2020-06-13 11:00:00 14.5 17 Oeste 36 Oeste 0 930.5 -- 62
2020-06-13 10:00:00 13.2 13 Oeste 32 Sudoeste 0 930 -- 72
2020-06-13 09:00:00 11.7 13 Oeste 32 Oeste 0 929.7 -- 80
2020-06-13 08:00:00 9.2 7 Sudoeste 20 Sudoeste 0 929.1 -- 89
2020-06-13 07:00:00 8.9 8 Sudoeste 19 Sudoeste 0 928.2 -- 90
2020-06-13 06:00:00 9.8 9 Sudoeste 25 Sudoeste 0 927.3 -- 87
2020-06-13 05:00:00 10.1 8 Sudoeste 21 Oeste 0 926.9 -- 87
2020-06-13 04:00:00 10.5 9 Sudoeste 22 Sudoeste 0 926.5 -- 87
2020-06-13 03:00:00 10.3 6 Sudoeste 18 Sudoeste 0 926.3 -- 87
2020-06-13 02:00:00 10.5 9 Sudoeste 22 Sudoeste 0 926.2 -- 86
2020-06-13 01:00:00 10.8 11 Sudoeste 25 Sudoeste 0 925.9 -- 86
2020-06-13 00:00:00 11.2 11 Sudoeste 34 Oeste 0 925.6 -- 86
2020-06-12 23:00:00 11.3 11 Sudoeste 36 Oeste 0 924.9 -- 87
2020-06-12 22:00:00 11.6 18 Oeste 40 Oeste 0 923.9 -- 85
2020-06-12 21:00:00 11.6 13 Sudoeste 35 Oeste 0.8 923.4 -- 86
2020-06-12 20:00:00 11.7 12 Oeste 32 Oeste 0.2 922.8 -- 87
2020-06-12 19:00:00 12.1 11 Oeste 40 Noroeste 0.2 922.2 -- 86
2020-06-12 18:00:00 13.6 10 Oeste 45 Sudoeste 1.2 921.2 -- 83
2020-06-12 17:00:00 16.9 17 Sudoeste 40 Oeste 0 920.7 -- 52
2020-06-12 16:00:00 16.7 21 Sudoeste 48 Oeste 0 920.8 -- 60
2020-06-12 15:00:00 15.2 11 Sudoeste 41 Oeste 0.6 920.8 -- 71
2020-06-12 14:00:00 15.4 12 Oeste 42 Oeste 0 920.8 -- 67
2020-06-12 13:00:00 16.3 20 Oeste 40 Oeste 0 920.8 -- 53
2020-06-12 12:00:00 13.9 19 Oeste 42 Oeste 0 920.8 -- 66
2020-06-12 11:00:00 12 13 Sudoeste 33 Sudoeste 0 920.8 -- 76
2020-06-12 10:00:00 11.5 17 Oeste 38 Sudoeste 0 920.5 -- 75
2020-06-12 09:00:00 12.2 15 Oeste 38 Oeste 0 920.1 -- 70
2020-06-12 08:00:00 10.2 12 Sudoeste 31 Sudoeste 0 919.9 -- 76
2020-06-12 07:00:00 9.2 10 Sudoeste 30 Sudoeste 0 919.7 -- 78
2020-06-12 06:00:00 9.3 15 Sudoeste 32 Sudoeste 0 919.7 -- 75
2020-06-12 05:00:00 9.5 9 Sudoeste 32 Oeste 0 919.9 -- 71
2020-06-12 04:00:00 9.7 9 Sudoeste 32 Sudoeste 0 920 -- 67
2020-06-12 03:00:00 9.5 13 Sudoeste 37 Sudoeste 0 920.5 -- 70
2020-06-12 02:00:00 9.6 19 Oeste 44 Oeste 0 921.1 -- 66
2020-06-12 01:00:00 10.2 11 Oeste 34 Oeste 0 921.5 -- 64
2020-06-12 00:00:00 11 13 Oeste 34 Noroeste 0 921.6 -- 62
2020-06-11 23:00:00 12.5 15 Oeste 36 Oeste 0 921.3 -- 54
2020-06-11 22:00:00 14.4 13 Oeste 35 Oeste 0 920.6 -- 49
2020-06-11 21:00:00 16.2 18 Oeste 51 Oeste 0 920.1 -- 41
2020-06-11 20:00:00 18 18 Oeste 48 Oeste 0 919.9 -- 43
2020-06-11 19:00:00 19.1 22 Oeste 50 Oeste 0 919.6 -- 41
2020-06-11 18:00:00 20.2 23 Oeste 51 Oeste 0 919.9 -- 41
2020-06-11 17:00:00 20.5 21 Oeste 50 Sudoeste 0 920.4 -- 40
2020-06-11 16:00:00 18.8 23 Oeste 45 Sudoeste 0 921.3 -- 47
2020-06-11 15:00:00 19.9 19 Sudoeste 50 Sudoeste 0 921.6 -- 43
2020-06-11 14:00:00 20.2 18 Oeste 42 Sudoeste 0 922.4 -- 46
2020-06-11 13:00:00 19.6 17 Oeste 36 Oeste 0 922.8 -- 50
2020-06-11 12:00:00 17.5 14 Oeste 32 Sudoeste 0 923.4 -- 59
2020-06-11 11:00:00 17.2 14 Oeste 33 Oeste 0 924 -- 58
2020-06-11 10:00:00 17 13 Oeste 31 Oeste 0 924.2 -- 56
2020-06-11 09:00:00 14.2 13 Oeste 26 Oeste 0 924.8 -- 69
2020-06-11 08:00:00 12.7 8 Sur 15 Sur 0 925.3 -- 77
2020-06-11 07:00:00 12.6 5 Sur 17 Sudoeste 0 925.7 -- 76
2020-06-11 06:00:00 12.7 8 Sudoeste 17 Sudoeste 0 925.8 -- 71
2020-06-11 05:00:00 11.6 3 Sur 12 Oeste 0 926.3 -- 78
2020-06-11 04:00:00 12.4 5 Noroeste 18 Noroeste 0 926.8 -- 79
2020-06-11 03:00:00 13.1 5 Noroeste 13 Noroeste 0 927.2 -- 76
2020-06-11 02:00:00 14.1 6 Noroeste 15 Noroeste 0 927.7 -- 67
2020-06-11 01:00:00 15.2 8 Noroeste 21 Noroeste 0 927.8 -- 55
2020-06-11 00:00:00 16.6 8 Oeste 22 Oeste 0 928.1 -- 51
2020-06-10 23:00:00 18.7 6 Oeste 15 Oeste 0 927.9 -- 43
2020-06-10 22:00:00 21 6 Oeste 18 Oeste 0 927.8 -- 35
2020-06-10 21:00:00 22.6 6 Oeste 18 Oeste 0 927.9 -- 32
2020-06-10 20:00:00 23.3 8 Oeste 21 Norte 0 928.1 -- 29
2020-06-10 19:00:00 23.8 6 Noroeste 21 Oeste 0 928.8 -- 27
2020-06-10 18:00:00 23.4 7 Oeste 25 Norte 0 929.2 -- 30
2020-06-10 17:00:00 23.9 11 Oeste 23 Oeste 0 929.8 -- 28
2020-06-10 16:00:00 24.2 10 Noroeste 26 Noroeste 0 930.1 -- 28
2020-06-10 15:00:00 24 9 Oeste 27 Oeste 0 930.8 -- 30
2020-06-10 14:00:00 22.1 5 Sur 16 Sur 0 931.5 -- 33
2020-06-10 13:00:00 20.3 5 Norte 10 Noroeste 0 932.3 -- 35
2020-06-10 12:00:00 19.1 3 Este 10 Este 0 932.6 -- 40
2020-06-10 11:00:00 15.8 4 Nordeste 11 Este 0 932.9 -- 54
2020-06-10 10:00:00 13 4 Norte 12 Norte 0 933.6 -- 65
2020-06-10 09:00:00 9.8 3 Norte 12 Nordeste 0 933.8 -- 80
2020-06-10 08:00:00 8.1 4 Noroeste 9 Norte 0 933.8 -- 86
2020-06-10 07:00:00 7.4 3 Noroeste 8 Norte 0 934 -- 88
2020-06-10 06:00:00 7.7 3 Noroeste 8 Norte 0 934.1 -- 86
2020-06-10 05:00:00 8.3 3 Norte 11 Nordeste 0 933.9 -- 84
2020-06-10 04:00:00 9.1 4 Noroeste 11 Norte 0 934 -- 80
2020-06-10 03:00:00 10 3 Noroeste 12 Nordeste 0 934.3 -- 74
2020-06-10 02:00:00 11.7 8 Nordeste 23 Este 0 934.3 -- 66
2020-06-10 01:00:00 12.5 4 Nordeste 21 Este 0 934.4 -- 63
2020-06-10 00:00:00 13.2 6 Nordeste 24 Este 0 934.4 -- 58
2020-06-09 23:00:00 14.6 10 Nordeste 22 Nordeste 0 934.1 -- 52
2020-06-09 22:00:00 16.1 8 Nordeste 23 Este 0 933.4 -- 43
2020-06-09 21:00:00 17.6 12 Este 23 Este 0 933 -- 39
2020-06-09 20:00:00 19.2 5 Norte 16 Nordeste 0 932.9 -- 35
2020-06-09 19:00:00 20.7 6 Norte 15 Oeste 0 932.8 -- 30
2020-06-09 18:00:00 21.8 5 Noroeste 21 Noroeste 0 933 -- 30
2020-06-09 17:00:00 20.7 5 Oeste 17 Noroeste 0 933.3 -- 31
2020-06-09 16:00:00 18.7 6 Norte 25 Noroeste 0 933.8 -- 34
2020-06-09 15:00:00 19.9 9 Noroeste 20 Noroeste 0 934.1 -- 34
2020-06-09 14:00:00 17.9 6 Norte -- -- -- 934.5 -- 41
2020-06-09 13:00:00 -- -- -- -- -- -- -- -- --
2020-06-09 12:00:00 -- -- -- -- -- -- -- -- --
2020-06-09 11:00:00 15.1 5 Norte 14 Este 0 934.9 -- 53
2020-06-09 10:00:00 12.1 5 Norte 12 Noroeste 0 935.3 -- 67
2020-06-09 09:00:00 9.4 4 Norte 13 Norte 0 935.4 -- 78
2020-06-09 08:00:00 7.8 3 Norte 7 Norte 0 935.1 -- 87
2020-06-09 07:00:00 7 3 Noroeste 8 Noroeste 0 934.6 -- 87
2020-06-09 06:00:00 7.3 4 Noroeste 10 Norte 0 934.5 -- 85
2020-06-09 05:00:00 7.6 3 Noroeste 12 Norte 0 934.4 -- 85
2020-06-09 04:00:00 7.7 2 Norte 13 Nordeste 0 934.5 -- 83
2020-06-09 03:00:00 9 5 Nordeste 16 Norte 0 934.7 -- 75
2020-06-09 02:00:00 9.9 4 Nordeste 24 Nordeste 0 934.9 -- 71
2020-06-09 01:00:00 10.6 7 Nordeste 24 Nordeste 0 935 -- 67
2020-06-09 00:00:00 11.5 10 Este 27 Nordeste 0 934.8 -- 63
2020-06-08 23:00:00 12.5 9 Nordeste 31 Nordeste 0 934.2 -- 63
2020-06-08 22:00:00 14.1 11 Este 27 Nordeste 0 933.3 -- 58
2020-06-08 21:00:00 16 13 Nordeste 33 Noroeste 0 932.3 -- 55
2020-06-08 20:00:00 18.2 9 Noroeste 18 Noroeste 0 931.6 -- 41
2020-06-08 19:00:00 19.2 5 Norte 14 Norte 0 931.6 -- 37
2020-06-08 18:00:00 18.8 7 Noroeste 16 Norte 0 931.8 -- 39
2020-06-08 17:00:00 18.9 5 Norte 17 Norte 0 932 -- 35
2020-06-08 16:00:00 18.5 7 Nordeste 21 Este 0 932.2 -- 39
2020-06-08 15:00:00 18.5 8 Nordeste 22 Este 0 932.5 -- 37
2020-06-08 14:00:00 17.7 6 Nordeste 19 Nordeste 0 932.5 -- 44
2020-06-08 13:00:00 17 8 Nordeste 22 Nordeste 0 932.8 -- 48
2020-06-08 12:00:00 15.6 7 Norte 20 Nordeste 0 932.6 -- 50
2020-06-08 11:00:00 14.3 8 Nordeste 20 Nordeste 0 932.6 -- 54
2020-06-08 10:00:00 11.7 5 Norte 17 Norte 0 932.6 -- 65
2020-06-08 09:00:00 9.9 5 Norte 14 Norte 0 932.1 -- 74
2020-06-08 08:00:00 8.1 3 Norte 10 Noroeste 0 931.7 -- 81
2020-06-08 07:00:00 7 4 Norte 11 Nordeste 0 931.1 -- 84
2020-06-08 06:00:00 7.7 5 Norte 13 Norte 0 930.9 -- 81
2020-06-08 05:00:00 8.4 4 Norte 20 Este 0 930.8 -- 77
2020-06-08 04:00:00 8.8 6 Norte 18 Nordeste 0 930.8 -- 74
2020-06-08 03:00:00 9.5 5 Norte 28 Este 0 930.7 -- 72
2020-06-08 02:00:00 10 6 Norte 27 Nordeste 0 930.6 -- 68
2020-06-08 01:00:00 10.6 10 Nordeste 30 Este 0 930.6 -- 67
2020-06-08 00:00:00 11.3 12 Nordeste 34 Norte 0 930.7 -- 64
2020-06-07 23:00:00 11.6 9 Nordeste 29 Este 0 930 -- 63
2020-06-07 22:00:00 12.5 8 Nordeste 31 Norte 0 929.1 -- 61
2020-06-07 21:00:00 14.1 13 Este 36 Este 0 928.6 -- 59
2020-06-07 20:00:00 15.8 10 Nordeste 28 Nordeste 0 927.7 -- 57
2020-06-07 19:00:00 17.3 9 Norte 24 Nordeste 0 927.3 -- 54
2020-06-07 18:00:00 17.7 8 Nordeste 27 Nordeste 0 927.2 -- 56
2020-06-07 17:00:00 18.1 7 Nordeste 29 Nordeste 0 927.1 -- 54
2020-06-07 16:00:00 18.4 7 Norte 22 Norte 0 927.2 -- 57
2020-06-07 15:00:00 17.8 8 Nordeste 21 Norte 0 927.1 -- 58
2020-06-07 14:00:00 17.1 8 Norte 23 Norte 0 927.2 -- 62
2020-06-07 13:00:00 15.2 6 Norte 16 Noroeste 0 927 -- 71
2020-06-07 12:00:00 14.2 8 Norte 20 Noroeste 0 926.5 -- 78
2020-06-07 11:00:00 13.8 5 Norte 19 Norte 0 926.3 -- 80
2020-06-07 10:00:00 12.9 6 Nordeste 18 Nordeste 0 926 -- 84
2020-06-07 09:00:00 12.7 3 Nordeste 12 Este 0 925.6 -- 92
2020-06-07 08:00:00 12.4 3 Norte 10 Este 0 925.2 -- 94
2020-06-07 07:00:00 12.3 4 Nordeste 15 Este 0 924.9 -- 90
2020-06-07 06:00:00 12.2 4 Norte 15 Norte 0 924.4 -- 94
2020-06-07 05:00:00 12.4 2 Norte 14 Nordeste 0 924.6 -- 94
2020-06-07 04:00:00 13.3 4 Nordeste 13 Este 0 924.5 -- 91
2020-06-07 03:00:00 13.5 3 Nordeste 13 Este 0 925 -- 93
2020-06-07 02:00:00 13.7 3 Norte 12 Nordeste 0 925.2 -- 94
2020-06-07 01:00:00 14.2 4 Este 9 Noroeste 0.2 925.4 -- 95
2020-06-07 00:00:00 14.1 8 Este 15 Nordeste 0.8 925.5 -- 93